createdAt,value
2022-11-05T00:00:41.082Z,94.52
2022-11-05T00:03:27.427Z,94.16
2022-11-05T00:06:12.761Z,94.43
2022-11-05T00:08:59.762Z,94.03
2022-11-05T00:11:46.950Z,94.00
2022-11-05T00:14:32.780Z,94.10
2022-11-05T00:16:59.828Z,93.87
2022-11-05T00:19:26.650Z,93.94
2022-11-05T00:22:12.092Z,93.70
2022-11-05T00:24:57.635Z,93.79
2022-11-05T00:27:24.525Z,93.47
2022-11-05T00:29:51.488Z,93.53
2022-11-05T00:32:18.279Z,93.67
2022-11-05T00:34:45.138Z,93.23
2022-11-05T00:37:11.952Z,93.36
2022-11-05T00:39:38.814Z,93.05
2022-11-05T00:42:24.140Z,93.07
2022-11-05T00:45:02.880Z,93.11
2022-11-05T00:47:49.632Z,93.12
2022-11-05T00:50:17.222Z,92.78
2022-11-05T00:52:56.084Z,92.89
2022-11-05T00:55:41.163Z,93.02
2022-11-05T00:58:14.010Z,93.09
2022-11-05T01:00:43.458Z,93.42
2022-11-05T01:03:13.496Z,93.32
2022-11-05T01:05:52.080Z,93.63
2022-11-05T01:08:20.832Z,93.32
2022-11-05T01:10:53.382Z,93.75
2022-11-05T01:13:22.477Z,93.42
2022-11-05T01:15:51.141Z,93.59
2022-11-05T01:18:19.391Z,93.41
2022-11-05T01:20:47.123Z,93.64
2022-11-05T01:23:14.266Z,93.73
2022-11-05T01:25:43.291Z,93.42
2022-11-05T01:28:10.756Z,93.29
2022-11-05T01:30:38.259Z,93.40
2022-11-05T01:33:05.488Z,93.27
2022-11-05T01:35:32.915Z,93.30
2022-11-05T01:38:00.001Z,93.27
2022-11-05T01:40:26.903Z,93.19
2022-11-05T01:42:53.794Z,93.38
2022-11-05T01:45:29.943Z,93.14
2022-11-05T01:48:14.363Z,93.22
2022-11-05T01:50:47.641Z,93.23
2022-11-05T01:53:30.972Z,93.40
2022-11-05T01:56:07.715Z,93.31
2022-11-05T01:58:41.924Z,93.59
2022-11-05T02:01:08.922Z,93.33
2022-11-05T02:03:36.393Z,93.30
2022-11-05T02:06:04.431Z,93.57
2022-11-05T02:08:54.286Z,93.44
2022-11-05T02:11:21.332Z,93.50
2022-11-05T02:13:49.264Z,93.52
2022-11-05T02:16:24.916Z,93.46
2022-11-05T02:19:14.709Z,93.74
2022-11-05T02:22:07.867Z,93.52
2022-11-05T02:24:47.830Z,93.96
2022-11-05T02:27:36.690Z,93.98
2022-11-05T02:30:26.350Z,94.10
2022-11-05T02:33:13.426Z,94.17
2022-11-05T02:36:02.334Z,93.95
2022-11-05T02:38:57.206Z,94.21
2022-11-05T02:41:51.016Z,93.98
2022-11-05T02:44:46.531Z,94.19
2022-11-05T02:47:17.989Z,94.38
2022-11-05T02:49:54.259Z,94.36
2022-11-05T02:52:37.070Z,94.39
2022-11-05T02:55:23.946Z,94.07
2022-11-05T02:57:50.925Z,94.30
2022-11-05T03:00:56.607Z,94.67
2022-11-05T03:03:28.854Z,94.57
2022-11-05T03:06:37.599Z,94.53
2022-11-05T03:09:31.115Z,94.59
2022-11-05T03:12:19.104Z,94.43
2022-11-05T03:14:46.042Z,94.14
2022-11-05T03:17:33.802Z,94.22
2022-11-05T03:20:10.738Z,93.96
2022-11-05T03:23:01.380Z,93.76
2022-11-05T03:25:31.739Z,94.00
2022-11-05T03:28:03.985Z,93.75
2022-11-05T03:30:33.890Z,93.74
2022-11-05T03:33:06.677Z,93.73
2022-11-05T03:35:40.480Z,93.91
2022-11-05T03:38:12.854Z,93.74
2022-11-05T03:40:42.750Z,93.72
2022-11-05T03:43:09.987Z,93.98
2022-11-05T03:46:01.142Z,93.95
2022-11-05T03:48:30.971Z,93.93
2022-11-05T03:51:07.357Z,94.00
2022-11-05T03:53:43.753Z,94.17
2022-11-05T03:56:22.278Z,93.94
2022-11-05T03:58:53.378Z,93.93
2022-11-05T04:01:24.086Z,94.48
2022-11-05T04:03:51.050Z,94.37
2022-11-05T04:06:36.473Z,93.90
2022-11-05T04:09:21.944Z,94.34
2022-11-05T04:12:07.336Z,94.07
2022-11-05T04:14:34.139Z,94.02
2022-11-05T04:17:06.822Z,94.21
2022-11-05T04:19:53.675Z,94.25
2022-11-05T04:22:39.877Z,93.87
2022-11-05T04:25:07.054Z,94.47
2022-11-05T04:27:34.224Z,94.51
2022-11-05T04:30:19.720Z,94.76
2022-11-05T04:32:59.956Z,94.91
2022-11-05T04:35:30.133Z,95.01
2022-11-05T04:37:57.039Z,95.03
2022-11-05T04:40:24.338Z,95.21
2022-11-05T04:42:51.262Z,94.98
2022-11-05T04:45:18.059Z,95.38
2022-11-05T04:47:44.898Z,95.08
2022-11-05T04:50:13.311Z,95.23
2022-11-05T04:52:40.839Z,95.40
2022-11-05T04:55:08.233Z,95.10
2022-11-05T04:57:35.163Z,95.32
2022-11-05T05:00:02.480Z,95.36
2022-11-05T05:02:29.379Z,95.61
2022-11-05T05:04:56.249Z,95.73
2022-11-05T05:07:23.121Z,95.81
2022-11-05T05:09:50.269Z,95.78
2022-11-05T05:12:17.255Z,95.63
2022-11-05T05:14:43.993Z,95.65
2022-11-05T05:17:10.788Z,95.93
2022-11-05T05:19:57.662Z,95.81
2022-11-05T05:22:24.494Z,95.83
2022-11-05T05:24:52.883Z,95.84
2022-11-05T05:27:20.907Z,95.98
2022-11-05T05:29:47.652Z,95.96
2022-11-05T05:32:14.673Z,96.21
2022-11-05T05:34:41.518Z,96.00
2022-11-05T05:37:08.476Z,96.02
2022-11-05T05:39:35.332Z,95.79
2022-11-05T05:42:02.256Z,95.83
2022-11-05T05:44:29.045Z,95.58
2022-11-05T05:46:55.907Z,95.47
2022-11-05T05:49:22.787Z,95.10
2022-11-05T05:51:49.933Z,95.28
2022-11-05T05:54:16.935Z,95.05
2022-11-05T05:56:44.537Z,95.08
2022-11-05T05:59:12.334Z,94.96
2022-11-05T06:01:39.342Z,94.97
2022-11-05T06:04:06.431Z,95.14
2022-11-05T06:06:33.497Z,95.12
2022-11-05T06:09:00.397Z,95.06
2022-11-05T06:11:27.469Z,94.77
2022-11-05T06:13:54.419Z,94.70
2022-11-05T06:16:21.430Z,94.75
2022-11-05T06:18:48.395Z,94.87
2022-11-05T06:21:17.402Z,94.74
2022-11-05T06:23:45.759Z,94.67
2022-11-05T06:26:16.025Z,94.81
2022-11-05T06:28:43.378Z,94.77
2022-11-05T06:31:11.432Z,94.68
2022-11-05T06:33:38.498Z,94.97
2022-11-05T06:36:07.231Z,94.87
2022-11-05T06:38:36.111Z,95.12
2022-11-05T06:41:09.839Z,94.89
2022-11-05T06:43:37.615Z,95.21
2022-11-05T06:46:05.083Z,95.21
2022-11-05T06:48:32.113Z,95.39
2022-11-05T06:50:58.915Z,95.31
2022-11-05T06:53:26.303Z,95.48
2022-11-05T06:55:53.164Z,95.73
2022-11-05T06:58:20.322Z,95.40
2022-11-05T07:00:48.277Z,95.59
2022-11-05T07:03:15.388Z,95.65
2022-11-05T07:05:48.795Z,95.55
2022-11-05T07:08:16.047Z,95.71
2022-11-05T07:10:43.000Z,95.50
2022-11-05T07:13:10.051Z,95.40
2022-11-05T07:15:37.779Z,95.36
2022-11-05T07:18:05.407Z,95.28
2022-11-05T07:20:34.422Z,95.30
2022-11-05T07:23:11.519Z,95.63
2022-11-05T07:25:39.224Z,95.43
2022-11-05T07:28:06.809Z,95.41
2022-11-05T07:30:35.001Z,95.47
2022-11-05T07:33:02.740Z,95.57
2022-11-05T07:35:30.203Z,95.53
2022-11-05T07:37:57.125Z,95.48
2022-11-05T07:40:26.811Z,95.69
2022-11-05T07:42:59.381Z,95.62
2022-11-05T07:45:28.749Z,95.47
2022-11-05T07:47:58.665Z,95.38
2022-11-05T07:50:28.690Z,95.43
2022-11-05T07:53:03.890Z,95.37
2022-11-05T07:55:31.022Z,95.68
2022-11-05T07:57:58.204Z,95.38
2022-11-05T08:00:26.763Z,95.63
2022-11-05T08:03:02.194Z,95.33
2022-11-05T08:05:37.258Z,95.30
2022-11-05T08:08:05.196Z,95.40
2022-11-05T08:10:34.268Z,95.20
2022-11-05T08:13:01.877Z,95.10
2022-11-05T08:15:29.277Z,95.17
2022-11-05T08:18:03.962Z,95.20
2022-11-05T08:20:31.232Z,95.48
2022-11-05T08:22:58.381Z,95.36
2022-11-05T08:25:26.116Z,95.51
2022-11-05T08:27:58.549Z,95.32
2022-11-05T08:30:26.291Z,95.30
2022-11-05T08:32:58.539Z,95.61
2022-11-05T08:35:26.830Z,95.44
2022-11-05T08:38:02.988Z,95.53
2022-11-05T08:40:34.891Z,95.51
2022-11-05T08:43:04.328Z,95.29
2022-11-05T08:45:31.588Z,95.16
2022-11-05T08:48:03.623Z,95.54
2022-11-05T08:50:31.067Z,95.33
2022-11-05T08:52:58.373Z,95.40
2022-11-05T08:55:25.882Z,95.43
2022-11-05T08:58:01.379Z,95.20
2022-11-05T09:00:31.005Z,95.53
2022-11-05T09:03:02.898Z,95.40
2022-11-05T09:05:31.954Z,95.52
2022-11-05T09:08:01.427Z,95.25
2022-11-05T09:10:29.039Z,95.31
2022-11-05T09:12:56.460Z,95.00
2022-11-05T09:15:24.702Z,95.49
2022-11-05T09:17:52.073Z,94.94
2022-11-05T09:20:19.729Z,94.97
2022-11-05T09:22:46.900Z,95.08
2022-11-05T09:25:16.280Z,94.82
2022-11-05T09:27:43.720Z,94.75
2022-11-05T09:30:12.807Z,94.51
2022-11-05T09:32:39.867Z,94.82
2022-11-05T09:35:07.781Z,94.48
2022-11-05T09:37:36.114Z,94.67
2022-11-05T09:40:03.707Z,94.70
2022-11-05T09:42:38.143Z,94.44
2022-11-05T09:45:13.779Z,94.30
2022-11-05T09:47:45.215Z,94.40
2022-11-05T09:50:19.641Z,93.96
2022-11-05T09:52:46.755Z,93.80
2022-11-05T09:55:29.325Z,93.80
2022-11-05T09:58:10.938Z,93.89
2022-11-05T10:00:38.097Z,93.46
2022-11-05T10:03:10.854Z,93.52
2022-11-05T10:05:40.522Z,93.12
2022-11-05T10:08:29.645Z,93.60
2022-11-05T10:11:04.375Z,93.40
2022-11-05T10:13:37.391Z,93.39
2022-11-05T10:16:19.259Z,93.00
2022-11-05T10:18:51.221Z,92.34
2022-11-05T10:21:37.635Z,92.36
2022-11-05T10:24:15.817Z,92.49
2022-11-05T10:26:46.885Z,91.84
2022-11-05T10:29:29.714Z,91.61
2022-11-05T10:31:58.764Z,91.45
2022-11-05T10:34:31.024Z,91.19
2022-11-05T10:36:58.123Z,90.67
2022-11-05T10:39:27.948Z,90.43
2022-11-05T10:42:31.443Z,89.78
2022-11-05T10:45:35.374Z,89.53
2022-11-05T10:48:32.502Z,89.09
2022-11-05T10:50:59.787Z,88.77
2022-11-05T10:53:33.768Z,89.13
2022-11-05T10:56:00.907Z,88.60
2022-11-05T10:58:35.083Z,88.16
2022-11-05T11:01:10.836Z,88.06
2022-11-05T11:03:45.939Z,87.82
2022-11-05T11:06:21.984Z,87.29
2022-11-05T11:08:50.632Z,87.16
2022-11-05T11:11:39.600Z,86.61
2022-11-05T11:14:12.528Z,85.60
2022-11-05T11:16:45.935Z,86.02
2022-11-05T11:19:34.052Z,85.40
2022-11-05T11:22:04.294Z,85.10
2022-11-05T11:24:41.988Z,85.27
2022-11-05T11:27:13.997Z,85.15
2022-11-05T11:29:49.178Z,85.20
2022-11-05T11:32:20.349Z,84.94
2022-11-05T11:34:52.456Z,84.81
2022-11-05T11:37:28.765Z,84.99
2022-11-05T11:40:04.592Z,83.85
2022-11-05T11:42:35.209Z,84.11
2022-11-05T11:45:15.315Z,84.61
2022-11-05T11:47:48.726Z,84.54
2022-11-05T11:50:39.975Z,84.67
2022-11-05T11:53:26.414Z,83.94
2022-11-05T11:56:07.533Z,84.15
2022-11-05T11:58:40.829Z,84.20
2022-11-05T12:01:41.845Z,84.05
2022-11-05T12:04:46.094Z,84.01
2022-11-05T12:07:31.197Z,84.07
2022-11-05T12:10:04.632Z,83.34
2022-11-05T12:13:02.398Z,83.85
2022-11-05T12:15:55.906Z,83.93
2022-11-05T12:18:47.407Z,83.70
2022-11-05T12:21:58.405Z,83.39
2022-11-05T12:24:47.432Z,83.77
2022-11-05T12:27:51.603Z,83.85
2022-11-05T12:30:21.644Z,83.31
2022-11-05T12:33:15.733Z,83.07
2022-11-05T12:36:06.297Z,82.08
2022-11-05T12:39:19.508Z,81.70
2022-11-05T12:42:14.794Z,81.11
2022-11-05T12:45:02.852Z,81.79
2022-11-05T12:47:50.083Z,80.78
2022-11-05T12:50:49.255Z,81.11
2022-11-05T12:53:53.508Z,80.57
2022-11-05T12:56:38.217Z,80.05
2022-11-05T12:59:43.890Z,80.08
2022-11-05T13:02:20.682Z,80.60
2022-11-05T13:04:55.615Z,79.95
2022-11-05T13:07:36.198Z,79.59
2022-11-05T13:10:14.988Z,78.93
2022-11-05T13:12:44.299Z,79.56
2022-11-05T13:15:32.927Z,80.10
2022-11-05T13:18:06.073Z,80.45
2022-11-05T13:20:37.838Z,80.48
2022-11-05T13:23:24.362Z,80.90
2022-11-05T13:25:56.190Z,80.79
2022-11-05T13:28:44.210Z,80.86
2022-11-05T13:31:16.331Z,80.21
2022-11-05T13:33:46.318Z,80.47
2022-11-05T13:36:49.843Z,80.61
2022-11-05T13:39:28.582Z,80.37
2022-11-05T13:42:23.254Z,80.19
2022-11-05T13:45:15.502Z,79.97
2022-11-05T13:47:54.426Z,79.70
2022-11-05T13:51:06.545Z,78.94
2022-11-05T13:53:54.573Z,79.83
2022-11-05T13:56:55.637Z,80.19
2022-11-05T13:59:59.206Z,80.33
2022-11-05T14:02:35.040Z,80.02
2022-11-05T14:05:03.395Z,80.01
2022-11-05T14:07:47.331Z,79.17
2022-11-05T14:10:24.594Z,79.85
2022-11-05T14:12:54.630Z,79.99
2022-11-05T14:15:26.386Z,79.48
2022-11-05T14:18:03.611Z,79.94
2022-11-05T14:20:30.463Z,79.92
2022-11-05T14:23:25.306Z,79.38
2022-11-05T14:25:56.469Z,79.71
2022-11-05T14:28:35.539Z,80.11
2022-11-05T14:31:41.174Z,80.58
2022-11-05T14:34:11.464Z,79.71
2022-11-05T14:36:40.747Z,80.27
2022-11-05T14:39:28.543Z,80.47
2022-11-05T14:42:03.354Z,80.29
2022-11-05T14:44:35.893Z,80.55
2022-11-05T14:47:08.050Z,80.65
2022-11-05T14:49:53.186Z,80.86
2022-11-05T14:52:20.724Z,80.96
2022-11-05T14:54:54.102Z,80.96
2022-11-05T14:57:42.689Z,80.85
2022-11-05T15:00:40.948Z,80.66
2022-11-05T15:03:29.463Z,80.79
2022-11-05T15:06:08.525Z,81.00
2022-11-05T15:08:38.775Z,81.20
2022-11-05T15:11:18.844Z,81.03
2022-11-05T15:14:19.126Z,80.85
2022-11-05T15:16:53.134Z,81.55
2022-11-05T15:19:34.983Z,81.44
2022-11-05T15:22:05.934Z,81.33
2022-11-05T15:24:35.134Z,81.34
2022-11-05T15:27:34.178Z,81.45
2022-11-05T15:30:15.883Z,81.44
2022-11-05T15:32:42.943Z,81.69
2022-11-05T15:35:29.820Z,81.58
2022-11-05T15:38:02.224Z,81.60
2022-11-05T15:40:33.668Z,81.85
2022-11-05T15:43:17.470Z,81.90
2022-11-05T15:46:05.989Z,81.50
2022-11-05T15:48:33.811Z,81.83
2022-11-05T15:51:01.429Z,82.13
2022-11-05T15:54:23.966Z,82.27
2022-11-05T15:56:52.770Z,82.12
2022-11-05T15:59:22.416Z,82.45
2022-11-05T16:01:51.355Z,82.17
2022-11-05T16:04:29.316Z,82.33
2022-11-05T16:07:09.674Z,82.73
2022-11-05T16:09:40.275Z,82.81
2022-11-05T16:12:19.616Z,82.77
2022-11-05T16:15:25.638Z,83.07
2022-11-05T16:18:00.287Z,83.10
2022-11-05T16:20:31.504Z,83.28
2022-11-05T16:23:04.161Z,83.17
2022-11-05T16:25:37.835Z,83.42
2022-11-05T16:28:26.689Z,83.31
2022-11-05T16:31:05.345Z,83.21
2022-11-05T16:33:51.153Z,83.38
2022-11-05T16:36:18.791Z,83.26
2022-11-05T16:38:45.854Z,83.64
2022-11-05T16:41:18.333Z,83.65
2022-11-05T16:43:57.062Z,83.82
2022-11-05T16:46:30.362Z,83.54
2022-11-05T16:48:58.848Z,83.85
2022-11-05T16:51:28.369Z,84.14
2022-11-05T16:53:55.384Z,84.21
2022-11-05T16:56:23.385Z,84.43
2022-11-05T16:58:50.610Z,84.75
2022-11-05T17:01:21.730Z,84.84
2022-11-05T17:03:50.329Z,84.73
2022-11-05T17:06:18.944Z,84.95
2022-11-05T17:08:46.607Z,85.11
2022-11-05T17:11:16.296Z,85.10
2022-11-05T17:13:43.696Z,85.28
2022-11-05T17:16:13.230Z,85.28
2022-11-05T17:18:41.196Z,85.48
2022-11-05T17:21:09.931Z,85.32
2022-11-05T17:23:37.443Z,85.45
2022-11-05T17:26:11.424Z,85.46
2022-11-05T17:28:39.148Z,85.46
2022-11-05T17:31:09.343Z,85.51
2022-11-05T17:33:36.288Z,85.58
2022-11-05T17:36:13.476Z,85.64
2022-11-05T17:38:40.752Z,85.76
2022-11-05T17:41:12.883Z,86.00
2022-11-05T17:43:40.117Z,85.72
2022-11-05T17:46:13.560Z,85.64
2022-11-05T17:48:41.049Z,86.04
2022-11-05T17:51:12.763Z,85.80
2022-11-05T17:53:39.728Z,85.81
2022-11-05T17:56:10.821Z,85.86
2022-11-05T17:58:38.023Z,85.92
2022-11-05T18:01:05.844Z,85.90
2022-11-05T18:03:33.193Z,85.99
2022-11-05T18:06:06.932Z,86.09
2022-11-05T18:08:34.140Z,85.90
2022-11-05T18:11:01.057Z,85.94
2022-11-05T18:13:27.975Z,85.93
2022-11-05T18:15:55.034Z,86.11
2022-11-05T18:18:22.434Z,86.24
2022-11-05T18:20:49.543Z,86.44
2022-11-05T18:23:16.565Z,86.55
2022-11-05T18:25:43.915Z,86.77
2022-11-05T18:28:11.190Z,87.08
2022-11-05T18:30:39.681Z,87.18
2022-11-05T18:33:07.259Z,87.04
2022-11-05T18:35:34.559Z,87.13
2022-11-05T18:38:01.610Z,87.40
2022-11-05T18:40:28.407Z,87.70
2022-11-05T18:42:55.414Z,87.52
2022-11-05T18:45:26.893Z,87.39
2022-11-05T18:47:56.350Z,87.67
2022-11-05T18:50:23.218Z,87.66
2022-11-05T18:52:50.033Z,87.68
2022-11-05T18:55:16.885Z,88.00
2022-11-05T18:57:43.733Z,87.78
2022-11-05T19:00:11.322Z,87.69
2022-11-05T19:02:38.534Z,87.74
2022-11-05T19:07:53.229Z,87.70
2022-11-05T19:10:20.199Z,87.59
2022-11-05T19:12:47.098Z,87.57
2022-11-05T19:15:13.949Z,87.48
2022-11-05T19:17:41.229Z,87.29
2022-11-05T19:20:09.273Z,87.59
2022-11-05T19:22:36.191Z,87.39
2022-11-05T19:25:03.755Z,87.40
2022-11-05T19:27:30.963Z,87.20
2022-11-05T19:29:57.754Z,87.18
2022-11-05T19:32:24.762Z,87.32
2022-11-05T19:34:51.616Z,87.29
2022-11-05T19:37:19.474Z,87.15
2022-11-05T19:39:46.491Z,87.26
2022-11-05T19:42:13.422Z,87.08
2022-11-05T19:44:41.083Z,86.90
2022-11-05T19:47:08.202Z,86.91
2022-11-05T19:49:34.974Z,86.89
2022-11-05T19:52:01.976Z,86.97
2022-11-05T19:54:29.024Z,87.14
2022-11-05T19:56:56.095Z,87.08
2022-11-05T19:59:22.928Z,87.18
2022-11-05T20:01:50.244Z,87.28
2022-11-05T20:04:17.123Z,87.04
2022-11-05T20:06:43.956Z,86.99
2022-11-05T20:09:22.658Z,87.03
2022-11-05T20:11:54.775Z,86.80
2022-11-05T20:14:23.224Z,86.82
2022-11-05T20:16:50.513Z,86.87
2022-11-05T20:19:19.894Z,86.78
2022-11-05T20:21:47.646Z,86.72
2022-11-05T20:24:22.469Z,86.72
2022-11-05T20:26:51.881Z,86.75
2022-11-05T20:29:18.862Z,86.90
2022-11-05T20:31:45.800Z,86.84
2022-11-05T20:34:12.736Z,86.78
2022-11-05T20:36:40.120Z,86.85
2022-11-05T20:39:07.415Z,86.71
2022-11-05T20:41:34.335Z,86.44
2022-11-05T20:44:01.646Z,86.69
2022-11-05T20:46:28.686Z,86.61
2022-11-05T20:48:56.128Z,86.74
2022-11-05T20:51:24.687Z,86.64
2022-11-05T20:54:00.252Z,86.79
2022-11-05T20:56:29.855Z,86.69
2022-11-05T20:58:58.924Z,86.72
2022-11-05T21:01:27.848Z,86.52
2022-11-05T21:03:55.213Z,86.51
2022-11-05T21:06:22.736Z,86.57
2022-11-05T21:08:51.312Z,86.52
2022-11-05T21:11:19.956Z,86.56
2022-11-05T21:13:47.190Z,86.43
2022-11-05T21:16:18.512Z,86.70
2022-11-05T21:18:46.817Z,86.77
2022-11-05T21:21:17.767Z,86.64
2022-11-05T21:23:44.678Z,86.85
2022-11-05T21:26:14.007Z,86.82
2022-11-05T21:28:42.052Z,86.88
2022-11-05T21:31:09.381Z,86.98
2022-11-05T21:33:36.738Z,87.22
2022-11-05T21:36:12.712Z,87.24
2022-11-05T21:38:40.717Z,87.11
2022-11-05T21:41:08.828Z,87.27
2022-11-05T21:43:38.002Z,87.41
2022-11-05T21:46:05.256Z,87.49
2022-11-05T21:48:32.898Z,87.29
2022-11-05T21:51:18.641Z,87.43
2022-11-05T21:54:04.285Z,87.35
2022-11-05T21:56:50.873Z,87.49
2022-11-05T21:59:41.549Z,87.30
2022-11-05T22:02:11.467Z,87.49
2022-11-05T22:04:43.927Z,87.46
2022-11-05T22:07:15.463Z,87.44
2022-11-05T22:09:42.353Z,87.30
2022-11-05T22:12:09.701Z,87.43
2022-11-05T22:14:36.800Z,87.35
2022-11-05T22:17:04.149Z,87.42
2022-11-05T22:19:31.757Z,87.29
2022-11-05T22:21:58.797Z,87.25
2022-11-05T22:24:28.259Z,87.24
2022-11-05T22:26:55.222Z,87.19
2022-11-05T22:29:22.137Z,87.05
2022-11-05T22:31:49.183Z,86.69
2022-11-05T22:34:16.080Z,87.34
2022-11-05T22:36:43.102Z,87.30
2022-11-05T22:39:12.101Z,87.19
2022-11-05T22:41:39.525Z,87.25
2022-11-05T22:44:06.963Z,87.30
2022-11-05T22:46:34.246Z,87.26
2022-11-05T22:49:01.299Z,87.10
2022-11-05T22:51:33.825Z,87.32
2022-11-05T22:54:02.247Z,87.36
2022-11-05T22:56:32.234Z,87.27
2022-11-05T22:59:00.098Z,87.42
2022-11-05T23:01:27.880Z,87.41
2022-11-05T23:03:56.397Z,87.31
2022-11-05T23:06:44.112Z,87.29
2022-11-05T23:09:35.607Z,87.63
2022-11-05T23:12:04.789Z,87.52
2022-11-05T23:14:31.690Z,87.53
2022-11-05T23:17:17.007Z,87.45
2022-11-05T23:20:02.618Z,87.38
2022-11-05T23:22:49.925Z,87.12
2022-11-05T23:25:20.253Z,87.47
2022-11-05T23:27:49.426Z,87.16
2022-11-05T23:30:21.958Z,87.53
2022-11-05T23:32:49.543Z,87.31
2022-11-05T23:35:17.339Z,87.56
2022-11-05T23:38:02.737Z,87.55
2022-11-05T23:40:52.334Z,87.54
2022-11-05T23:43:38.052Z,87.77
2022-11-05T23:46:23.756Z,87.63
2022-11-05T23:48:50.868Z,87.61
2022-11-05T23:51:18.106Z,87.68
2022-11-05T23:53:44.953Z,87.83
2022-11-05T23:56:14.729Z,88.02
2022-11-05T23:58:42.535Z,87.93
